Friday, April 25, 2014, 3:33 AM EDT

KMDT, Harrisburg International Airport

Location: Middletown, PA, United States Lat: 40.2
Local Time: 3:33 AM EDT ( 7:33 GMT) Lon: -76.767
Time Zone: US/Eastern Elev: 308 ft

Show me the last for .
Show Decoded

2014-04-25 02:56 METAR KMDT 250656Z 00000KT 10SM BKN250 06/M03 A3001 =
2014-04-25 01:56 METAR KMDT 250556Z 12004KT 10SM BKN250 07/M02 A3002 =
2014-04-25 00:56 METAR KMDT 250456Z 11003KT 10SM BKN250 07/M01 A3002 RMK AO2 SLP168 T00721006
                 401940050 =
2014-04-24 23:56 METAR KMDT 250356Z 00000KT 10SM BKN250 10/M01 A3002 =
2014-04-24 22:56 METAR KMDT 250256Z 00000KT 10SM SCT250 11/M02 A3002 =
2014-04-24 21:56 METAR KMDT 250156Z 00000KT 10SM SCT250 12/M01 A3001 =
2014-04-24 20:56 METAR KMDT 250056Z 00000KT 10SM SCT250 12/02 A3000 RMK AO2 SLP161 T01220017 =
2014-04-24 19:56 METAR KMDT 242356Z 00000KT 10SM FEW250 16/M03 A2999 =
2014-04-24 18:56 METAR KMDT 242256Z 32006KT 10SM FEW250 18/M08 A2998 RMK AO2 SLP154 T01831078 =
2014-04-24 17:56 METAR KMDT 242156Z 33006KT 10SM FEW250 19/M10 A2998 RMK AO2 SLP152 T01941100 =
2014-04-24 16:56 METAR KMDT 242056Z 29008KT 10SM FEW250 19/M05 A2997 =
2014-04-24 15:56 METAR KMDT 241956Z 31012G16KT 10SM FEW250 19/M08 A2998 =
2014-04-24 14:56 METAR KMDT 241856Z 33012G20KT 10SM FEW250 18/M08 A3001 RMK AO2 SLP162 T01831083
                 =
2014-04-24 13:56 METAR KMDT 241756Z 29008G16KT 10SM FEW250 17/M06 A3002 RMK AO2 SLP168 T01671061
                 =
2014-04-24 12:56 METAR KMDT 241656Z 27005KT 10SM CLR 17/M08 A3005 RMK AO2 SLP177 T01671078 $ =
2014-04-24 11:56 METAR KMDT 241556Z 33010G19KT 10SM CLR 12/M09 A3008 RMK AO2 SLP188 T01221089 PNO
                 $ =
2014-04-24 10:56 METAR KMDT 241456Z 30014G19KT 10SM CLR 12/M02 A3009 RMK AO2 SLP192 6////
                 T01171017 50005 PNO $ =
2014-04-24 09:56 METAR KMDT 241356Z 31011G20KT 10SM CLR 10/M09 A3010 RMK AO2 SLP193 T01001089 =
2014-04-24 08:56 METAR KMDT 241256Z 32011G20KT 10SM CLR 08/M09 A3010 =
2014-04-24 07:56 METAR KMDT 241156Z 33009KT 10SM CLR 07/M09 A3008 =
2014-04-24 06:56 METAR KMDT 241056Z 32008KT 10SM CLR 06/M08 A3006 RMK AO2 SLP181 T00561078 $ =
2014-04-24 05:56 METAR KMDT 240956Z 33008KT 10SM CLR 06/M08 A3003 =
2014-04-24 04:56 METAR KMDT 240856Z 33009KT 10SM CLR 06/M08 A3000 RMK AO2 SLP161 T00611078 53011
                 $ =
2014-04-24 03:56 METAR KMDT 240756Z 33013KT 10SM CLR 07/M06 A2998 =

Support USWX by starting your Amazon purchase here.